Lakeland, MI (48143)

3:19 PM EST on January 31, 2015 (GMT -0500)
Cobblestone Creek | Change Station
CLOSE
Current Station
Personal Weather Station
Location: Pinckney, MI
Elevation: 920 ft
Nearby Weather Stations
Active Advisory: Winter Storm Watch

Elev 920 ft 42.45 °N, 83.91 °W | Updated 4 minutes ago

Overcast
Overcast
34.6 °F
Feels Like 35 °F
N
3.0
Wind Variable Wind from SSW
Gusts 7.0 mph

Today
High -- | Low -- °F
--% Chance of Precip.
Yesterday
High -- | Low -- °F
Precip. -- in
7:50 AM 5:47 PM
Waxing Gibbous, 91% visible
Pressure 30.15 in
Visibility 10.0 miles
Clouds Scattered Clouds 3600 ft
Overcast 4600 ft
Windchill 35 °F
Dew Point 22 °F
Humidity 60%
Rainfall 0.00 in
Snow Depth Not available.
UV 1 out of 12
Pollen .10 out of 12
Air Quality Not available.
Flu Activity Not available.
METAR KOZW 312015Z AUTO 23007KT 10SM SCT036 OVC046 00/M07 A3015 RMK AO2 T00001067

More Conditions Fewer Conditions

Pressure 30.15 in
Visibility 10.0 miles
Clouds Scattered Clouds 3600 ft
Overcast 4600 ft
Windchill 35 °F
Dew Point 22 °F
Humidity 60%
Rainfall 0.00 in
Snow Depth Not available.
UV 1 out of 12
Pollen .10 out of 12
Air Quality Not available.
Flu Activity Not available.
METAR KOZW 312015Z AUTO 23007KT 10SM SCT036 OVC046 00/M07 A3015 RMK AO2 T00001067

More Conditions Fewer Conditions

10-Day Weather Forecast

Almanac

Astronomy

Jan. 31, 2015 Rise Set
Actual Time
Civil Twilight
Nautical Twilight
Astronomical Twilight
Moon
Length of Visible Light
Length of Day
Tomorrow will be .
, % of the Moon is Illuminated

Today's Extremes

State Highs State Lows

Community

WunderPhotos

Upload Photos

1,792,173 photos uploaded!

WunderBlogs® & News

Nearby

Air Quality

  Air Quality AQ Index Pollutant
Not available.

Snow Depth

Station Depth Elevation

Earthquake Activity

City Distance Mag. Time & Date
Minimum magnitude displayed is 2.5.

Coastal Water Temperatures

Place Temperature

Nearby Weather Stations